sensor_id;sensor_type;location;lat;lon;timestamp;P1;durP1;ratioP1;P2;durP2;ratioP2
25249;SDS011;13201;51.148;13.738;2024-02-16T00:00:26;12.65;;;8.35;;
25249;SDS011;13201;51.148;13.738;2024-02-16T00:02:52;10.93;;;8.02;;
25249;SDS011;13201;51.148;13.738;2024-02-16T00:05:18;15.20;;;9.13;;
25249;SDS011;13201;51.148;13.738;2024-02-16T00:07:44;13.40;;;8.35;;
25249;SDS011;13201;51.148;13.738;2024-02-16T00:10:10;14.32;;;9.18;;
25249;SDS011;13201;51.148;13.738;2024-02-16T00:12:37;12.68;;;8.20;;
25249;SDS011;13201;51.148;13.738;2024-02-16T00:15:05;11.52;;;7.88;;
25249;SDS011;13201;51.148;13.738;2024-02-16T00:17:31;14.82;;;9.60;;
25249;SDS011;13201;51.148;13.738;2024-02-16T00:22:24;16.43;;;9.67;;
25249;SDS011;13201;51.148;13.738;2024-02-16T00:24:49;13.82;;;9.30;;
25249;SDS011;13201;51.148;13.738;2024-02-16T00:27:15;14.85;;;9.20;;
25249;SDS011;13201;51.148;13.738;2024-02-16T00:29:41;14.23;;;8.20;;
25249;SDS011;13201;51.148;13.738;2024-02-16T00:32:07;12.98;;;8.35;;
25249;SDS011;13201;51.148;13.738;2024-02-16T00:34:35;12.00;;;8.25;;
25249;SDS011;13201;51.148;13.738;2024-02-16T00:37:02;13.65;;;8.57;;
25249;SDS011;13201;51.148;13.738;2024-02-16T00:39:30;14.45;;;7.60;;
25249;SDS011;13201;51.148;13.738;2024-02-16T00:41:55;11.35;;;7.82;;
25249;SDS011;13201;51.148;13.738;2024-02-16T00:44:21;12.48;;;8.32;;
25249;SDS011;13201;51.148;13.738;2024-02-16T00:46:47;12.95;;;8.18;;
25249;SDS011;13201;51.148;13.738;2024-02-16T00:49:12;14.02;;;8.30;;
25249;SDS011;13201;51.148;13.738;2024-02-16T00:51:38;13.57;;;8.45;;
25249;SDS011;13201;51.148;13.738;2024-02-16T00:54:05;13.77;;;9.02;;
25249;SDS011;13201;51.148;13.738;2024-02-16T00:56:31;16.23;;;9.18;;
25249;SDS011;13201;51.148;13.738;2024-02-16T00:58:57;16.63;;;9.00;;
25249;SDS011;13201;51.148;13.738;2024-02-16T01:01:23;13.93;;;8.82;;
25249;SDS011;13201;51.148;13.738;2024-02-16T01:27:59;14.27;;;9.40;;
25249;SDS011;13201;51.148;13.738;2024-02-16T01:30:25;17.10;;;9.60;;
25249;SDS011;13201;51.148;13.738;2024-02-16T01:32:50;16.67;;;9.05;;
25249;SDS011;13201;51.148;13.738;2024-02-16T01:35:16;15.70;;;9.15;;
25249;SDS011;13201;51.148;13.738;2024-02-16T01:37:42;15.43;;;9.57;;
25249;SDS011;13201;51.148;13.738;2024-02-16T01:40:11;18.70;;;8.98;;
25249;SDS011;13201;51.148;13.738;2024-02-16T01:42:42;13.40;;;8.80;;
25249;SDS011;13201;51.148;13.738;2024-02-16T01:45:09;12.60;;;7.75;;
25249;SDS011;13201;51.148;13.738;2024-02-16T01:47:39;12.20;;;8.10;;
25249;SDS011;13201;51.148;13.738;2024-02-16T01:50:07;12.95;;;7.65;;
25249;SDS011;13201;51.148;13.738;2024-02-16T01:55:02;10.07;;;6.38;;
25249;SDS011;13201;51.148;13.738;2024-02-16T01:57:30;10.27;;;6.40;;
25249;SDS011;13201;51.148;13.738;2024-02-16T02:02:23;10.18;;;5.93;;
25249;SDS011;13201;51.148;13.738;2024-02-16T02:04:49;10.95;;;6.45;;
25249;SDS011;13201;51.148;13.738;2024-02-16T02:07:15;10.73;;;7.25;;
25249;SDS011;13201;51.148;13.738;2024-02-16T02:09:41;11.60;;;7.07;;
25249;SDS011;13201;51.148;13.738;2024-02-16T02:12:07;10.10;;;6.20;;
25249;SDS011;13201;51.148;13.738;2024-02-16T02:14:34;12.65;;;7.57;;
25249;SDS011;13201;51.148;13.738;2024-02-16T02:19:28;8.68;;;5.70;;
25249;SDS011;13201;51.148;13.738;2024-02-16T02:21:54;6.78;;;5.00;;
25249;SDS011;13201;51.148;13.738;2024-02-16T02:24:20;10.27;;;6.73;;
25249;SDS011;13201;51.148;13.738;2024-02-16T02:26:46;10.70;;;6.30;;
25249;SDS011;13201;51.148;13.738;2024-02-16T02:29:12;9.65;;;5.95;;
25249;SDS011;13201;51.148;13.738;2024-02-16T02:31:37;9.85;;;6.15;;
25249;SDS011;13201;51.148;13.738;2024-02-16T02:34:03;8.57;;;5.53;;
25249;SDS011;13201;51.148;13.738;2024-02-16T02:36:30;9.10;;;6.38;;
25249;SDS011;13201;51.148;13.738;2024-02-16T02:38:57;11.68;;;6.32;;
25249;SDS011;13201;51.148;13.738;2024-02-16T02:41:23;9.40;;;6.07;;
25249;SDS011;13201;51.148;13.738;2024-02-16T02:43:50;8.40;;;5.85;;
25249;SDS011;13201;51.148;13.738;2024-02-16T02:46:17;9.40;;;6.40;;
25249;SDS011;13201;51.148;13.738;2024-02-16T02:48:43;10.25;;;6.10;;
25249;SDS011;13201;51.148;13.738;2024-02-16T02:51:10;9.65;;;6.82;;
25249;SDS011;13201;51.148;13.738;2024-02-16T02:53:36;10.05;;;6.88;;
25249;SDS011;13201;51.148;13.738;2024-02-16T02:56:02;10.35;;;6.30;;
25249;SDS011;13201;51.148;13.738;2024-02-16T02:58:28;11.82;;;6.85;;
25249;SDS011;13201;51.148;13.738;2024-02-16T03:00:54;10.27;;;7.43;;
25249;SDS011;13201;51.148;13.738;2024-02-16T03:03:20;12.32;;;7.75;;
25249;SDS011;13201;51.148;13.738;2024-02-16T03:05:46;10.63;;;6.88;;
25249;SDS011;13201;51.148;13.738;2024-02-16T03:08:12;11.60;;;7.15;;
25249;SDS011;13201;51.148;13.738;2024-02-16T03:10:38;11.93;;;7.15;;
25249;SDS011;13201;51.148;13.738;2024-02-16T03:13:04;10.67;;;6.73;;
25249;SDS011;13201;51.148;13.738;2024-02-16T03:15:32;10.82;;;6.75;;
25249;SDS011;13201;51.148;13.738;2024-02-16T03:17:58;9.85;;;6.50;;
25249;SDS011;13201;51.148;13.738;2024-02-16T03:20:24;11.38;;;6.97;;
25249;SDS011;13201;51.148;13.738;2024-02-16T03:22:50;10.82;;;6.85;;
25249;SDS011;13201;51.148;13.738;2024-02-16T03:25:16;10.73;;;7.28;;
25249;SDS011;13201;51.148;13.738;2024-02-16T03:27:42;11.35;;;7.20;;
25249;SDS011;13201;51.148;13.738;2024-02-16T03:30:08;14.68;;;8.30;;
25249;SDS011;13201;51.148;13.738;2024-02-16T03:32:34;15.00;;;8.30;;
25249;SDS011;13201;51.148;13.738;2024-02-16T03:34:59;19.60;;;10.32;;
25249;SDS011;13201;51.148;13.738;2024-02-16T03:37:25;20.50;;;11.90;;
25249;SDS011;13201;51.148;13.738;2024-02-16T03:39:51;20.75;;;11.90;;
25249;SDS011;13201;51.148;13.738;2024-02-16T03:42:18;21.25;;;12.60;;
25249;SDS011;13201;51.148;13.738;2024-02-16T03:44:44;20.48;;;12.65;;
25249;SDS011;13201;51.148;13.738;2024-02-16T03:47:10;20.60;;;12.63;;
25249;SDS011;13201;51.148;13.738;2024-02-16T03:49:37;22.67;;;12.45;;
25249;SDS011;13201;51.148;13.738;2024-02-16T03:52:04;25.00;;;13.48;;
25249;SDS011;13201;51.148;13.738;2024-02-16T03:54:30;21.25;;;12.68;;
25249;SDS011;13201;51.148;13.738;2024-02-16T03:56:56;22.20;;;13.07;;
25249;SDS011;13201;51.148;13.738;2024-02-16T04:01:48;23.90;;;12.17;;
25249;SDS011;13201;51.148;13.738;2024-02-16T04:04:14;22.70;;;12.93;;
25249;SDS011;13201;51.148;13.738;2024-02-16T04:06:40;24.90;;;12.77;;
25249;SDS011;13201;51.148;13.738;2024-02-16T04:09:06;21.55;;;13.00;;
25249;SDS011;13201;51.148;13.738;2024-02-16T04:11:32;23.10;;;13.35;;
25249;SDS011;13201;51.148;13.738;2024-02-16T04:13:58;21.75;;;13.23;;
25249;SDS011;13201;51.148;13.738;2024-02-16T04:16:23;23.40;;;13.30;;
25249;SDS011;13201;51.148;13.738;2024-02-16T04:18:50;24.50;;;14.20;;
25249;SDS011;13201;51.148;13.738;2024-02-16T04:21:16;23.40;;;13.73;;
25249;SDS011;13201;51.148;13.738;2024-02-16T04:23:42;20.52;;;13.60;;
25249;SDS011;13201;51.148;13.738;2024-02-16T04:26:08;22.80;;;13.50;;
25249;SDS011;13201;51.148;13.738;2024-02-16T04:28:34;23.77;;;14.15;;
25249;SDS011;13201;51.148;13.738;2024-02-16T04:31:00;26.48;;;14.38;;
25249;SDS011;13201;51.148;13.738;2024-02-16T04:33:26;22.95;;;13.77;;
25249;SDS011;13201;51.148;13.738;2024-02-16T04:35:51;24.80;;;14.45;;
25249;SDS011;13201;51.148;13.738;2024-02-16T04:38:17;23.45;;;14.23;;
25249;SDS011;13201;51.148;13.738;2024-02-16T04:40:45;25.95;;;13.98;;
25249;SDS011;13201;51.148;13.738;2024-02-16T04:43:11;21.50;;;14.23;;
25249;SDS011;13201;51.148;13.738;2024-02-16T04:45:36;23.95;;;14.65;;
25249;SDS011;13201;51.148;13.738;2024-02-16T04:48:05;22.95;;;14.50;;
25249;SDS011;13201;51.148;13.738;2024-02-16T04:50:32;23.65;;;14.48;;
25249;SDS011;13201;51.148;13.738;2024-02-16T04:52:58;22.77;;;14.83;;
25249;SDS011;13201;51.148;13.738;2024-02-16T04:55:26;21.90;;;13.80;;
25249;SDS011;13201;51.148;13.738;2024-02-16T04:57:53;22.75;;;15.10;;
25249;SDS011;13201;51.148;13.738;2024-02-16T05:00:20;23.55;;;14.57;;
25249;SDS011;13201;51.148;13.738;2024-02-16T05:02:45;22.90;;;14.25;;
25249;SDS011;13201;51.148;13.738;2024-02-16T05:05:11;23.40;;;14.98;;
25249;SDS011;13201;51.148;13.738;2024-02-16T05:07:37;21.67;;;13.88;;
25249;SDS011;13201;51.148;13.738;2024-02-16T05:10:03;22.65;;;14.15;;
25249;SDS011;13201;51.148;13.738;2024-02-16T05:12:29;21.90;;;14.43;;
25249;SDS011;13201;51.148;13.738;2024-02-16T05:14:54;22.15;;;14.32;;
25249;SDS011;13201;51.148;13.738;2024-02-16T05:17:21;22.65;;;14.75;;
25249;SDS011;13201;51.148;13.738;2024-02-16T05:19:49;23.27;;;14.95;;
25249;SDS011;13201;51.148;13.738;2024-02-16T05:22:15;21.05;;;14.48;;
25249;SDS011;13201;51.148;13.738;2024-02-16T05:24:43;22.00;;;14.35;;
25249;SDS011;13201;51.148;13.738;2024-02-16T05:27:09;21.48;;;14.38;;
25249;SDS011;13201;51.148;13.738;2024-02-16T05:29:36;23.85;;;15.05;;
25249;SDS011;13201;51.148;13.738;2024-02-16T05:32:01;21.52;;;14.90;;
25249;SDS011;13201;51.148;13.738;2024-02-16T05:34:27;24.15;;;15.15;;
25249;SDS011;13201;51.148;13.738;2024-02-16T05:36:57;26.00;;;15.32;;
25249;SDS011;13201;51.148;13.738;2024-02-16T05:39:23;24.17;;;15.00;;
25249;SDS011;13201;51.148;13.738;2024-02-16T05:41:54;21.98;;;15.35;;
25249;SDS011;13201;51.148;13.738;2024-02-16T05:44:20;25.60;;;17.13;;
25249;SDS011;13201;51.148;13.738;2024-02-16T05:46:45;25.38;;;15.82;;
25249;SDS011;13201;51.148;13.738;2024-02-16T05:49:11;22.77;;;15.30;;
25249;SDS011;13201;51.148;13.738;2024-02-16T05:51:37;24.15;;;15.75;;
25249;SDS011;13201;51.148;13.738;2024-02-16T05:54:04;25.23;;;16.42;;
25249;SDS011;13201;51.148;13.738;2024-02-16T05:56:30;24.10;;;15.90;;
25249;SDS011;13201;51.148;13.738;2024-02-16T05:58:58;23.17;;;15.52;;
25249;SDS011;13201;51.148;13.738;2024-02-16T06:01:25;25.52;;;15.57;;
25249;SDS011;13201;51.148;13.738;2024-02-16T06:03:51;24.90;;;16.13;;
25249;SDS011;13201;51.148;13.738;2024-02-16T06:06:17;25.30;;;16.15;;
25249;SDS011;13201;51.148;13.738;2024-02-16T06:08:43;22.90;;;15.65;;
25249;SDS011;13201;51.148;13.738;2024-02-16T06:11:08;25.85;;;15.80;;
25249;SDS011;13201;51.148;13.738;2024-02-16T06:13:34;26.13;;;15.38;;
25249;SDS011;13201;51.148;13.738;2024-02-16T06:16:00;23.65;;;15.02;;
25249;SDS011;13201;51.148;13.738;2024-02-16T06:18:25;23.20;;;15.38;;
25249;SDS011;13201;51.148;13.738;2024-02-16T06:20:54;24.48;;;14.75;;
25249;SDS011;13201;51.148;13.738;2024-02-16T06:23:20;24.52;;;15.57;;
25249;SDS011;13201;51.148;13.738;2024-02-16T06:25:46;23.90;;;15.30;;
25249;SDS011;13201;51.148;13.738;2024-02-16T06:28:11;24.85;;;14.93;;
25249;SDS011;13201;51.148;13.738;2024-02-16T06:30:37;22.70;;;15.13;;
25249;SDS011;13201;51.148;13.738;2024-02-16T06:33:03;21.90;;;14.60;;
25249;SDS011;13201;51.148;13.738;2024-02-16T06:35:32;23.73;;;14.65;;
25249;SDS011;13201;51.148;13.738;2024-02-16T06:37:58;25.52;;;15.05;;
25249;SDS011;13201;51.148;13.738;2024-02-16T06:40:23;25.70;;;16.30;;
25249;SDS011;13201;51.148;13.738;2024-02-16T06:42:51;78.07;;;35.65;;
25249;SDS011;13201;51.148;13.738;2024-02-16T06:45:17;139.07;;;54.85;;
25249;SDS011;13201;51.148;13.738;2024-02-16T06:47:42;35.40;;;20.08;;
25249;SDS011;13201;51.148;13.738;2024-02-16T06:50:08;37.40;;;22.05;;
25249;SDS011;13201;51.148;13.738;2024-02-16T06:52:34;31.05;;;18.90;;
25249;SDS011;13201;51.148;13.738;2024-02-16T06:55:00;25.45;;;16.27;;
25249;SDS011;13201;51.148;13.738;2024-02-16T06:57:25;23.17;;;15.88;;
25249;SDS011;13201;51.148;13.738;2024-02-16T06:59:51;26.10;;;16.38;;
25249;SDS011;13201;51.148;13.738;2024-02-16T07:04:44;26.67;;;15.57;;
25249;SDS011;13201;51.148;13.738;2024-02-16T07:07:10;25.90;;;15.87;;
25249;SDS011;13201;51.148;13.738;2024-02-16T07:09:36;23.60;;;15.17;;
25249;SDS011;13201;51.148;13.738;2024-02-16T07:12:04;21.63;;;14.98;;
25249;SDS011;13201;51.148;13.738;2024-02-16T07:14:31;20.13;;;14.35;;
25249;SDS011;13201;51.148;13.738;2024-02-16T07:16:57;21.70;;;14.70;;
25249;SDS011;13201;51.148;13.738;2024-02-16T07:19:23;23.40;;;14.90;;
25249;SDS011;13201;51.148;13.738;2024-02-16T07:21:50;24.77;;;14.82;;
25249;SDS011;13201;51.148;13.738;2024-02-16T07:24:15;25.67;;;15.77;;
25249;SDS011;13201;51.148;13.738;2024-02-16T07:26:41;27.75;;;17.77;;
25249;SDS011;13201;51.148;13.738;2024-02-16T07:29:07;26.10;;;17.42;;
25249;SDS011;13201;51.148;13.738;2024-02-16T07:31:33;23.33;;;15.75;;
25249;SDS011;13201;51.148;13.738;2024-02-16T07:34:00;23.80;;;15.33;;
25249;SDS011;13201;51.148;13.738;2024-02-16T07:36:26;23.95;;;15.63;;
25249;SDS011;13201;51.148;13.738;2024-02-16T07:38:51;28.30;;;15.85;;
25249;SDS011;13201;51.148;13.738;2024-02-16T07:41:17;24.63;;;16.52;;
25249;SDS011;13201;51.148;13.738;2024-02-16T07:43:43;29.35;;;19.58;;
25249;SDS011;13201;51.148;13.738;2024-02-16T07:46:08;24.23;;;15.70;;
25249;SDS011;13201;51.148;13.738;2024-02-16T07:48:34;27.77;;;16.95;;
25249;SDS011;13201;51.148;13.738;2024-02-16T07:51:00;23.92;;;15.68;;
25249;SDS011;13201;51.148;13.738;2024-02-16T07:53:28;24.85;;;16.23;;
25249;SDS011;13201;51.148;13.738;2024-02-16T07:55:54;23.40;;;16.35;;
25249;SDS011;13201;51.148;13.738;2024-02-16T07:58:20;24.65;;;14.45;;
25249;SDS011;13201;51.148;13.738;2024-02-16T08:00:45;24.27;;;14.20;;
25249;SDS011;13201;51.148;13.738;2024-02-16T08:03:11;20.60;;;14.60;;
25249;SDS011;13201;51.148;13.738;2024-02-16T08:05:37;22.65;;;14.32;;
25249;SDS011;13201;51.148;13.738;2024-02-16T08:08:03;23.63;;;14.65;;
25249;SDS011;13201;51.148;13.738;2024-02-16T08:10:29;22.55;;;14.15;;
25249;SDS011;13201;51.148;13.738;2024-02-16T08:12:54;19.48;;;13.63;;
25249;SDS011;13201;51.148;13.738;2024-02-16T08:15:20;22.25;;;14.00;;
25249;SDS011;13201;51.148;13.738;2024-02-16T08:17:51;21.17;;;14.38;;
25249;SDS011;13201;51.148;13.738;2024-02-16T08:20:17;22.83;;;14.25;;
25249;SDS011;13201;51.148;13.738;2024-02-16T08:22:43;23.05;;;15.15;;
25249;SDS011;13201;51.148;13.738;2024-02-16T08:25:09;23.77;;;15.02;;
25249;SDS011;13201;51.148;13.738;2024-02-16T08:27:34;21.23;;;14.32;;
25249;SDS011;13201;51.148;13.738;2024-02-16T08:30:00;23.35;;;13.93;;
25249;SDS011;13201;51.148;13.738;2024-02-16T08:32:27;23.30;;;14.10;;
25249;SDS011;13201;51.148;13.738;2024-02-16T08:34:53;23.70;;;14.35;;
25249;SDS011;13201;51.148;13.738;2024-02-16T08:37:21;20.50;;;13.32;;
25249;SDS011;13201;51.148;13.738;2024-02-16T08:39:47;22.97;;;13.67;;
25249;SDS011;13201;51.148;13.738;2024-02-16T08:42:13;18.83;;;13.50;;
25249;SDS011;13201;51.148;13.738;2024-02-16T08:44:39;22.17;;;13.30;;
25249;SDS011;13201;51.148;13.738;2024-02-16T08:47:05;20.30;;;13.05;;
25249;SDS011;13201;51.148;13.738;2024-02-16T08:51:58;22.70;;;13.20;;
25249;SDS011;13201;51.148;13.738;2024-02-16T08:54:24;20.17;;;12.73;;
25249;SDS011;13201;51.148;13.738;2024-02-16T08:56:50;20.40;;;13.43;;
25249;SDS011;13201;51.148;13.738;2024-02-16T08:59:18;20.80;;;13.38;;
25249;SDS011;13201;51.148;13.738;2024-02-16T09:01:43;22.30;;;13.75;;
25249;SDS011;13201;51.148;13.738;2024-02-16T09:04:09;20.55;;;13.48;;
25249;SDS011;13201;51.148;13.738;2024-02-16T09:06:35;19.70;;;13.18;;
25249;SDS011;13201;51.148;13.738;2024-02-16T09:09:00;20.50;;;13.70;;
25249;SDS011;13201;51.148;13.738;2024-02-16T09:11:27;27.37;;;13.77;;
25249;SDS011;13201;51.148;13.738;2024-02-16T09:13:55;20.58;;;12.82;;
25249;SDS011;13201;51.148;13.738;2024-02-16T09:16:21;19.83;;;13.23;;
25249;SDS011;13201;51.148;13.738;2024-02-16T09:18:46;20.75;;;13.90;;
25249;SDS011;13201;51.148;13.738;2024-02-16T09:21:15;28.45;;;18.90;;
25249;SDS011;13201;51.148;13.738;2024-02-16T09:23:41;21.35;;;14.32;;
25249;SDS011;13201;51.148;13.738;2024-02-16T09:26:06;21.27;;;13.35;;
25249;SDS011;13201;51.148;13.738;2024-02-16T09:28:38;20.27;;;13.05;;
25249;SDS011;13201;51.148;13.738;2024-02-16T09:31:06;23.02;;;14.18;;
25249;SDS011;13201;51.148;13.738;2024-02-16T09:33:33;19.65;;;13.15;;
25249;SDS011;13201;51.148;13.738;2024-02-16T09:35:58;21.65;;;13.05;;
25249;SDS011;13201;51.148;13.738;2024-02-16T09:38:24;20.65;;;12.15;;
25249;SDS011;13201;51.148;13.738;2024-02-16T09:40:50;18.55;;;12.85;;
25249;SDS011;13201;51.148;13.738;2024-02-16T09:43:26;19.65;;;13.00;;
25249;SDS011;13201;51.148;13.738;2024-02-16T09:45:53;22.92;;;13.27;;
25249;SDS011;13201;51.148;13.738;2024-02-16T09:48:25;21.40;;;13.85;;
25249;SDS011;13201;51.148;13.738;2024-02-16T09:50:56;17.90;;;13.05;;
25249;SDS011;13201;51.148;13.738;2024-02-16T09:53:27;22.00;;;13.15;;
25249;SDS011;13201;51.148;13.738;2024-02-16T09:55:53;18.48;;;12.52;;
25249;SDS011;13201;51.148;13.738;2024-02-16T09:58:19;19.20;;;12.90;;
25249;SDS011;13201;51.148;13.738;2024-02-16T10:00:52;19.60;;;12.68;;
25249;SDS011;13201;51.148;13.738;2024-02-16T10:03:29;20.77;;;12.68;;
25249;SDS011;13201;51.148;13.738;2024-02-16T10:06:08;20.73;;;13.02;;
25249;SDS011;13201;51.148;13.738;2024-02-16T10:08:46;18.90;;;12.73;;
25249;SDS011;13201;51.148;13.738;2024-02-16T10:11:14;17.40;;;12.52;;
25249;SDS011;13201;51.148;13.738;2024-02-16T10:13:40;18.60;;;12.60;;
25249;SDS011;13201;51.148;13.738;2024-02-16T10:16:09;22.10;;;13.30;;
25249;SDS011;13201;51.148;13.738;2024-02-16T10:18:37;17.80;;;11.55;;
25249;SDS011;13201;51.148;13.738;2024-02-16T10:21:03;18.48;;;12.55;;
25249;SDS011;13201;51.148;13.738;2024-02-16T10:23:29;16.48;;;11.52;;
25249;SDS011;13201;51.148;13.738;2024-02-16T10:25:55;18.92;;;12.30;;
25249;SDS011;13201;51.148;13.738;2024-02-16T10:28:24;16.25;;;12.13;;
25249;SDS011;13201;51.148;13.738;2024-02-16T10:30:56;17.55;;;11.57;;
25249;SDS011;13201;51.148;13.738;2024-02-16T10:33:24;18.73;;;11.98;;
25249;SDS011;13201;51.148;13.738;2024-02-16T10:35:53;16.58;;;11.95;;
25249;SDS011;13201;51.148;13.738;2024-02-16T10:38:22;24.27;;;11.98;;
25249;SDS011;13201;51.148;13.738;2024-02-16T10:40:49;20.80;;;12.88;;
25249;SDS011;13201;51.148;13.738;2024-02-16T10:43:16;18.42;;;12.30;;
25249;SDS011;13201;51.148;13.738;2024-02-16T10:48:11;18.95;;;13.43;;
25249;SDS011;13201;51.148;13.738;2024-02-16T10:50:37;18.10;;;12.43;;
25249;SDS011;13201;51.148;13.738;2024-02-16T10:53:36;16.50;;;11.27;;
25249;SDS011;13201;51.148;13.738;2024-02-16T10:55:59;17.58;;;11.48;;
25249;SDS011;13201;51.148;13.738;2024-02-16T10:58:27;17.02;;;11.63;;
25249;SDS011;13201;51.148;13.738;2024-02-16T11:00:53;17.85;;;11.80;;
25249;SDS011;13201;51.148;13.738;2024-02-16T11:03:24;19.58;;;12.35;;
25249;SDS011;13201;51.148;13.738;2024-02-16T11:05:50;18.45;;;12.85;;
25249;SDS011;13201;51.148;13.738;2024-02-16T11:08:17;18.08;;;12.23;;
25249;SDS011;13201;51.148;13.738;2024-02-16T11:10:54;19.25;;;12.52;;
25249;SDS011;13201;51.148;13.738;2024-02-16T11:13:24;21.08;;;12.93;;
25249;SDS011;13201;51.148;13.738;2024-02-16T11:16:03;18.35;;;12.48;;
25249;SDS011;13201;51.148;13.738;2024-02-16T11:18:36;20.05;;;12.85;;
25249;SDS011;13201;51.148;13.738;2024-02-16T11:21:04;17.50;;;12.27;;
25249;SDS011;13201;51.148;13.738;2024-02-16T11:23:30;17.90;;;11.73;;
25249;SDS011;13201;51.148;13.738;2024-02-16T11:26:03;19.13;;;12.47;;
25249;SDS011;13201;51.148;13.738;2024-02-16T11:28:33;17.10;;;11.93;;
25249;SDS011;13201;51.148;13.738;2024-02-16T11:31:00;18.50;;;11.77;;
25249;SDS011;13201;51.148;13.738;2024-02-16T11:33:27;16.48;;;11.60;;
25249;SDS011;13201;51.148;13.738;2024-02-16T11:35:57;17.50;;;11.93;;
25249;SDS011;13201;51.148;13.738;2024-02-16T11:38:27;18.85;;;12.63;;
25249;SDS011;13201;51.148;13.738;2024-02-16T11:40:57;16.92;;;11.30;;
25249;SDS011;13201;51.148;13.738;2024-02-16T11:43:24;17.08;;;12.18;;
25249;SDS011;13201;51.148;13.738;2024-02-16T11:48:20;17.40;;;11.57;;
25249;SDS011;13201;51.148;13.738;2024-02-16T11:51:00;17.03;;;12.13;;
25249;SDS011;13201;51.148;13.738;2024-02-16T11:53:27;17.27;;;12.40;;
25249;SDS011;13201;51.148;13.738;2024-02-16T11:55:54;17.30;;;11.95;;
25249;SDS011;13201;51.148;13.738;2024-02-16T11:58:20;20.38;;;14.85;;
25249;SDS011;13201;51.148;13.738;2024-02-16T12:00:46;21.70;;;12.93;;
25249;SDS011;13201;51.148;13.738;2024-02-16T12:03:21;16.95;;;12.20;;
25249;SDS011;13201;51.148;13.738;2024-02-16T12:05:51;22.48;;;14.75;;
25249;SDS011;13201;51.148;13.738;2024-02-16T12:08:18;22.17;;;14.88;;
25249;SDS011;13201;51.148;13.738;2024-02-16T12:10:47;39.33;;;20.63;;
25249;SDS011;13201;51.148;13.738;2024-02-16T12:13:17;32.10;;;19.88;;
25249;SDS011;13201;51.148;13.738;2024-02-16T12:15:44;19.08;;;13.70;;
25249;SDS011;13201;51.148;13.738;2024-02-16T12:18:18;18.73;;;12.93;;
25249;SDS011;13201;51.148;13.738;2024-02-16T12:20:45;39.58;;;21.55;;
25249;SDS011;13201;51.148;13.738;2024-02-16T12:23:13;25.58;;;15.50;;
25249;SDS011;13201;51.148;13.738;2024-02-16T12:25:39;114.37;;;44.77;;
25249;SDS011;13201;51.148;13.738;2024-02-16T12:28:05;19.48;;;13.93;;
25249;SDS011;13201;51.148;13.738;2024-02-16T12:30:31;15.95;;;11.52;;
25249;SDS011;13201;51.148;13.738;2024-02-16T12:32:56;16.02;;;10.93;;
25249;SDS011;13201;51.148;13.738;2024-02-16T12:35:22;16.30;;;10.85;;
25249;SDS011;13201;51.148;13.738;2024-02-16T12:37:47;15.05;;;10.38;;
25249;SDS011;13201;51.148;13.738;2024-02-16T12:40:13;14.60;;;10.45;;
25249;SDS011;13201;51.148;13.738;2024-02-16T12:42:39;15.63;;;10.70;;
25249;SDS011;13201;51.148;13.738;2024-02-16T12:45:04;16.13;;;11.55;;
25249;SDS011;13201;51.148;13.738;2024-02-16T12:47:30;15.25;;;11.25;;
25249;SDS011;13201;51.148;13.738;2024-02-16T12:49:56;17.88;;;11.90;;
25249;SDS011;13201;51.148;13.738;2024-02-16T12:52:24;20.65;;;13.80;;
25249;SDS011;13201;51.148;13.738;2024-02-16T12:54:51;16.17;;;12.38;;
25249;SDS011;13201;51.148;13.738;2024-02-16T12:57:17;16.75;;;11.85;;
25249;SDS011;13201;51.148;13.738;2024-02-16T12:59:43;14.32;;;10.35;;
25249;SDS011;13201;51.148;13.738;2024-02-16T13:02:08;15.68;;;10.35;;
25249;SDS011;13201;51.148;13.738;2024-02-16T13:04:34;15.35;;;10.13;;
25249;SDS011;13201;51.148;13.738;2024-02-16T13:07:00;16.73;;;10.07;;
25249;SDS011;13201;51.148;13.738;2024-02-16T13:09:25;15.10;;;10.13;;
25249;SDS011;13201;51.148;13.738;2024-02-16T13:11:52;13.55;;;10.45;;
25249;SDS011;13201;51.148;13.738;2024-02-16T13:14:20;17.02;;;10.27;;
25249;SDS011;13201;51.148;13.738;2024-02-16T13:19:12;13.80;;;9.70;;
25249;SDS011;13201;51.148;13.738;2024-02-16T13:21:38;12.13;;;8.88;;
25249;SDS011;13201;51.148;13.738;2024-02-16T13:24:04;14.55;;;9.27;;
25249;SDS011;13201;51.148;13.738;2024-02-16T13:26:31;14.00;;;9.25;;
25249;SDS011;13201;51.148;13.738;2024-02-16T13:28:56;15.45;;;8.75;;
25249;SDS011;13201;51.148;13.738;2024-02-16T13:31:22;12.32;;;8.57;;
25249;SDS011;13201;51.148;13.738;2024-02-16T13:33:49;12.52;;;9.00;;
25249;SDS011;13201;51.148;13.738;2024-02-16T13:36:15;14.32;;;9.43;;
25249;SDS011;13201;51.148;13.738;2024-02-16T13:38:41;14.77;;;9.10;;
25249;SDS011;13201;51.148;13.738;2024-02-16T13:41:07;13.38;;;8.90;;
25249;SDS011;13201;51.148;13.738;2024-02-16T13:43:32;15.70;;;9.77;;
25249;SDS011;13201;51.148;13.738;2024-02-16T13:45:58;13.80;;;9.52;;
25249;SDS011;13201;51.148;13.738;2024-02-16T13:48:25;13.68;;;9.20;;
25249;SDS011;13201;51.148;13.738;2024-02-16T13:50:50;11.90;;;8.93;;
25249;SDS011;13201;51.148;13.738;2024-02-16T13:53:17;13.50;;;9.23;;
25249;SDS011;13201;51.148;13.738;2024-02-16T13:55:43;12.73;;;8.48;;
25249;SDS011;13201;51.148;13.738;2024-02-16T13:58:12;12.65;;;9.00;;
25249;SDS011;13201;51.148;13.738;2024-02-16T14:00:37;12.82;;;8.63;;
25249;SDS011;13201;51.148;13.738;2024-02-16T14:03:06;13.00;;;8.82;;
25249;SDS011;13201;51.148;13.738;2024-02-16T14:05:38;13.40;;;9.70;;
25249;SDS011;13201;51.148;13.738;2024-02-16T14:08:04;13.60;;;9.55;;
25249;SDS011;13201;51.148;13.738;2024-02-16T14:12:59;13.65;;;9.50;;
25249;SDS011;13201;51.148;13.738;2024-02-16T14:15:25;15.88;;;9.25;;
25249;SDS011;13201;51.148;13.738;2024-02-16T14:17:51;15.13;;;9.98;;
25249;SDS011;13201;51.148;13.738;2024-02-16T14:20:17;13.52;;;9.43;;
25249;SDS011;13201;51.148;13.738;2024-02-16T14:22:43;13.45;;;9.48;;
25249;SDS011;13201;51.148;13.738;2024-02-16T14:25:09;12.65;;;9.35;;
25249;SDS011;13201;51.148;13.738;2024-02-16T14:27:38;14.73;;;9.70;;
25249;SDS011;13201;51.148;13.738;2024-02-16T14:30:04;14.23;;;10.35;;
25249;SDS011;13201;51.148;13.738;2024-02-16T14:32:31;16.95;;;10.40;;
25249;SDS011;13201;51.148;13.738;2024-02-16T14:34:56;16.55;;;10.52;;
25249;SDS011;13201;51.148;13.738;2024-02-16T14:37:22;14.23;;;10.32;;
25249;SDS011;13201;51.148;13.738;2024-02-16T14:39:48;17.55;;;10.70;;
25249;SDS011;13201;51.148;13.738;2024-02-16T14:42:14;16.02;;;11.48;;
25249;SDS011;13201;51.148;13.738;2024-02-16T14:44:39;16.80;;;11.75;;
25249;SDS011;13201;51.148;13.738;2024-02-16T14:47:05;15.48;;;11.25;;
25249;SDS011;13201;51.148;13.738;2024-02-16T14:49:31;17.75;;;11.98;;
25249;SDS011;13201;51.148;13.738;2024-02-16T14:51:57;15.05;;;10.70;;
25249;SDS011;13201;51.148;13.738;2024-02-16T14:54:22;17.23;;;12.45;;
25249;SDS011;13201;51.148;13.738;2024-02-16T14:56:51;16.65;;;11.57;;
25249;SDS011;13201;51.148;13.738;2024-02-16T14:59:20;17.90;;;12.23;;
25249;SDS011;13201;51.148;13.738;2024-02-16T15:01:46;17.08;;;12.32;;